createdAt,value
2022-09-23T00:00:26.762Z,9.961538
2022-09-23T00:05:25.081Z,9.870000
2022-09-23T00:10:21.008Z,9.750000
2022-09-23T00:15:24.049Z,9.645455
2022-09-23T00:20:24.449Z,9.481818
2022-09-23T00:25:24.333Z,9.345455
2022-09-23T00:30:24.491Z,9.244444
2022-09-23T00:35:24.899Z,9.200000
2022-09-23T00:40:28.075Z,9.241667
2022-09-23T00:45:18.994Z,9.300000
2022-09-23T00:50:25.871Z,9.366667
2022-09-23T00:55:25.227Z,9.400000
2022-09-23T01:00:24.867Z,9.337500
2022-09-23T01:05:19.535Z,9.300000
2022-09-23T01:10:24.939Z,9.300000
2022-09-23T01:15:25.711Z,9.400000
2022-09-23T01:20:28.858Z,9.400000
2022-09-23T01:25:19.890Z,9.400000
2022-09-23T01:30:24.858Z,9.400000
2022-09-23T01:35:26.192Z,9.400000
2022-09-23T01:40:30.405Z,9.390909
2022-09-23T01:45:20.218Z,9.300000
2022-09-23T01:50:23.428Z,9.180000
2022-09-23T01:55:26.859Z,9.088889
2022-09-23T02:00:29.620Z,9.000000
2022-09-23T02:05:20.674Z,9.000000
2022-09-23T02:10:23.734Z,8.900000
2022-09-23T02:15:27.045Z,8.850000
2022-09-23T02:20:25.299Z,8.800000
2022-09-23T02:25:21.339Z,8.800000
2022-09-23T02:30:25.347Z,8.800000
2022-09-23T02:35:27.644Z,8.800000
2022-09-23T02:40:25.984Z,8.800000
2022-09-23T02:45:22.779Z,8.800000
2022-09-23T02:50:25.687Z,8.800000
2022-09-23T02:55:28.180Z,8.800000
2022-09-23T03:00:19.164Z,8.744444
2022-09-23T03:05:22.283Z,8.700000
2022-09-23T03:10:25.831Z,8.700000
2022-09-23T03:15:29.042Z,8.700000
2022-09-23T03:20:19.786Z,8.718182
2022-09-23T03:25:25.812Z,8.800000
2022-09-23T03:30:26.833Z,8.800000
2022-09-23T03:35:29.140Z,8.800000
2022-09-23T03:40:20.273Z,8.710000
2022-09-23T03:45:26.381Z,8.644444
2022-09-23T03:50:26.422Z,8.600000
2022-09-23T03:55:26.706Z,8.511111
2022-09-23T04:00:20.507Z,8.385714
2022-09-23T04:05:26.182Z,8.244444
2022-09-23T04:10:26.835Z,8.218182
2022-09-23T04:15:26.401Z,8.350000
2022-09-23T04:20:22.004Z,8.572727
2022-09-23T04:25:26.284Z,8.750000
2022-09-23T04:30:27.586Z,8.950000
2022-09-23T04:35:27.180Z,9.122222
2022-09-23T04:40:21.736Z,9.250000
2022-09-23T04:45:26.728Z,9.375000
2022-09-23T04:50:28.017Z,9.436364
2022-09-23T04:55:19.003Z,9.500000
2022-09-23T05:00:22.715Z,9.541667
2022-09-23T05:05:25.276Z,9.600000
2022-09-23T05:10:28.389Z,9.600000
2022-09-23T05:15:19.542Z,9.600000
2022-09-23T05:20:22.765Z,9.600000
2022-09-23T05:25:26.655Z,9.700000
2022-09-23T05:30:29.020Z,9.754545
2022-09-23T05:35:20.294Z,9.911111
2022-09-23T05:40:23.128Z,10.210000
2022-09-23T05:45:27.040Z,10.345455
2022-09-23T05:50:29.484Z,10.488889
2022-09-23T05:55:20.386Z,10.630000
2022-09-23T06:00:23.601Z,10.945455
2022-09-23T06:05:28.377Z,11.244444
2022-09-23T06:10:26.746Z,11.400000
2022-09-23T06:15:20.890Z,11.400000
2022-09-23T06:20:26.788Z,11.260000
2022-09-23T06:25:27.323Z,11.112500
2022-09-23T06:30:30.459Z,11.100000
2022-09-23T06:35:26.932Z,11.350000
2022-09-23T06:40:24.681Z,11.900000
2022-09-23T06:45:27.891Z,12.488889
2022-09-23T06:50:26.778Z,12.962500
2022-09-23T06:55:22.219Z,13.272727
2022-09-23T07:00:26.733Z,13.590909
2022-09-23T07:05:28.123Z,13.987500
2022-09-23T07:10:19.069Z,14.187500
2022-09-23T07:15:22.283Z,14.400000
2022-09-23T07:20:26.729Z,14.533333
2022-09-23T07:25:28.579Z,14.766667
2022-09-23T07:30:25.126Z,14.966667
2022-09-23T07:35:23.191Z,15.072727
2022-09-23T07:40:26.990Z,14.980000
2022-09-23T07:45:29.052Z,14.800000
2022-09-23T07:50:20.002Z,14.800000
2022-09-23T07:55:23.255Z,14.883333
2022-09-23T08:00:27.027Z,14.966667
2022-09-23T08:05:29.370Z,15.000000
2022-09-23T08:10:20.460Z,14.975000
2022-09-23T08:15:23.563Z,15.063636
2022-09-23T08:20:26.899Z,15.210000
2022-09-23T08:25:26.793Z,15.363636
2022-09-23T08:30:21.116Z,15.325000
2022-09-23T08:35:26.677Z,15.390000
2022-09-23T08:40:27.750Z,15.418182
2022-09-23T08:45:26.729Z,15.572727
2022-09-23T08:50:21.487Z,15.710000
2022-09-23T08:55:26.775Z,15.855556
2022-09-23T09:00:27.911Z,15.900000
2022-09-23T09:05:26.831Z,15.862500
2022-09-23T09:10:21.834Z,15.961538
2022-09-23T09:15:26.892Z,16.263636
2022-09-23T09:20:28.555Z,16.470000
2022-09-23T09:25:19.583Z,16.412500
2022-09-23T09:30:22.707Z,16.453846
2022-09-23T09:35:25.951Z,16.636364
2022-09-23T09:40:28.948Z,16.936364
2022-09-23T09:45:20.132Z,17.100000
2022-09-23T09:50:23.062Z,16.977778
2022-09-23T09:55:26.699Z,16.827273
2022-09-23T10:00:29.321Z,16.672727
2022-09-23T10:05:20.411Z,16.800000
2022-09-23T10:10:32.563Z,16.955556
2022-09-23T10:15:27.023Z,16.950000
2022-09-23T10:20:26.674Z,16.700000
2022-09-23T10:25:21.110Z,16.500000
2022-09-23T10:30:26.596Z,16.480000
2022-09-23T10:35:27.528Z,16.700000
2022-09-23T10:40:30.607Z,16.958333
2022-09-23T10:45:22.032Z,17.240000
2022-09-23T10:50:26.734Z,17.272727
2022-09-23T10:55:27.735Z,17.133333
2022-09-23T11:00:26.634Z,16.925000
2022-09-23T11:05:23.356Z,16.800000
2022-09-23T11:10:45.012Z,16.863636
2022-09-23T11:15:28.195Z,17.025000
2022-09-23T11:20:19.304Z,17.145455
2022-09-23T11:25:22.564Z,17.212500
2022-09-23T11:30:27.049Z,17.366667
2022-09-23T11:35:28.700Z,17.388889
2022-09-23T11:40:19.749Z,17.208333
2022-09-23T11:45:23.182Z,16.960000
2022-09-23T11:50:26.766Z,16.925000
2022-09-23T11:55:29.032Z,17.142857
2022-09-23T12:00:20.132Z,17.536364
2022-09-23T12:05:23.329Z,17.700000
2022-09-23T12:10:26.714Z,17.581818
2022-09-23T12:15:29.704Z,17.242857
2022-09-23T12:20:20.611Z,17.200000
2022-09-23T12:25:24.137Z,17.300000
2022-09-23T12:30:26.792Z,17.450000
2022-09-23T12:35:29.997Z,17.281818
2022-09-23T12:40:20.990Z,16.914286
2022-09-23T12:45:24.031Z,16.618182
2022-09-23T12:50:27.222Z,16.591667
2022-09-23T12:55:27.219Z,16.600000
2022-09-23T13:00:21.375Z,16.516667
2022-09-23T13:05:24.551Z,16.314286
2022-09-23T13:10:27.575Z,16.109091
2022-09-23T13:15:27.082Z,15.900000
2022-09-23T13:20:22.299Z,15.662500
2022-09-23T13:25:27.125Z,15.377778
2022-09-23T13:30:29.227Z,15.080000
2022-09-23T13:35:19.592Z,15.000000
2022-09-23T13:40:22.769Z,15.045455
2022-09-23T13:45:27.147Z,15.100000
2022-09-23T13:50:34.126Z,15.037500
2022-09-23T13:55:20.005Z,14.900000
2022-09-23T14:00:23.062Z,14.820000
2022-09-23T14:05:26.507Z,14.800000
2022-09-23T14:10:29.416Z,14.754545
2022-09-23T14:15:20.424Z,15.000000
2022-09-23T14:20:23.932Z,15.291667
2022-09-23T14:25:27.142Z,15.677778
2022-09-23T14:30:30.130Z,15.970000
2022-09-23T14:35:21.220Z,16.240000
2022-09-23T14:40:24.251Z,16.454545
2022-09-23T14:45:27.691Z,16.677778
2022-09-23T14:50:30.578Z,16.850000
2022-09-23T14:55:21.571Z,17.000000
2022-09-23T15:00:27.567Z,16.988889
2022-09-23T15:05:27.831Z,16.611111
2022-09-23T15:10:27.576Z,16.240000
2022-09-23T15:15:22.032Z,15.900000
2022-09-23T15:20:27.663Z,15.590909
2022-09-23T15:25:28.820Z,15.257143
2022-09-23T15:30:19.377Z,14.975000
2022-09-23T15:35:22.502Z,14.800000
2022-09-23T15:40:28.097Z,14.660000
2022-09-23T15:45:28.753Z,14.528571
2022-09-23T15:50:19.758Z,14.342857
2022-09-23T15:55:22.837Z,14.063636
2022-09-23T16:00:28.104Z,13.780000
2022-09-23T16:05:29.560Z,13.287500
2022-09-23T16:10:20.185Z,12.790909
2022-09-23T16:15:23.274Z,12.300000
2022-09-23T16:20:28.315Z,12.076923
2022-09-23T16:25:29.861Z,12.177778
2022-09-23T16:30:21.558Z,12.358333
2022-09-23T16:35:24.187Z,12.330000
2022-09-23T16:40:28.627Z,12.238462
2022-09-23T16:45:30.534Z,12.200000
2022-09-23T16:50:21.369Z,12.200000
2022-09-23T16:55:24.603Z,12.200000
2022-09-23T17:00:28.462Z,12.222222
2022-09-23T17:05:31.154Z,12.477778
2022-09-23T17:10:24.669Z,12.808333
2022-09-23T17:15:24.983Z,13.040000
2022-09-23T17:20:28.538Z,13.100000
2022-09-23T17:25:19.536Z,12.962500
2022-09-23T17:30:22.611Z,12.633333
2022-09-23T17:35:26.463Z,12.500000
2022-09-23T17:40:28.966Z,12.650000
2022-09-23T17:45:19.987Z,12.700000
2022-09-23T17:50:23.042Z,12.600000
2022-09-23T17:55:28.934Z,12.500000
2022-09-23T18:00:29.286Z,12.540000
2022-09-23T18:05:20.279Z,12.808333
2022-09-23T18:10:23.408Z,13.063636
2022-09-23T18:15:28.894Z,13.200000
2022-09-23T18:20:29.704Z,13.280000
2022-09-23T18:25:37.997Z,13.300000
2022-09-23T18:30:23.840Z,13.244444
2022-09-23T18:35:29.380Z,12.990909
2022-09-23T18:40:30.221Z,12.766667
2022-09-23T18:45:21.247Z,12.454545
2022-09-23T18:50:24.343Z,12.175000
2022-09-23T18:55:30.217Z,11.909091
2022-09-23T19:00:30.610Z,11.781818
2022-09-23T19:05:21.572Z,11.770000
2022-09-23T19:10:25.102Z,11.683333
2022-09-23T19:15:31.056Z,11.466667
2022-09-23T19:20:19.015Z,11.318182
2022-09-23T19:25:22.027Z,11.363636
2022-09-23T19:30:25.292Z,11.414286
2022-09-23T19:35:28.409Z,11.509091
2022-09-23T19:40:19.490Z,11.636364
2022-09-23T19:45:22.524Z,11.772727
2022-09-23T19:50:25.657Z,11.870000
2022-09-23T19:55:30.389Z,11.800000
2022-09-23T20:00:19.852Z,11.871429
2022-09-23T20:05:22.855Z,11.900000
2022-09-23T20:10:26.632Z,11.790000
2022-09-23T20:15:29.879Z,11.609091
2022-09-23T20:20:20.645Z,11.514286
2022-09-23T20:25:23.632Z,11.600000
2022-09-23T20:30:26.778Z,11.600000
2022-09-23T20:35:30.230Z,11.522222
2022-09-23T20:40:21.028Z,11.500000
2022-09-23T20:45:24.071Z,11.500000
2022-09-23T20:50:27.698Z,11.611111
2022-09-23T20:55:42.543Z,11.745455
2022-09-23T21:00:21.399Z,11.800000
2022-09-23T21:05:24.498Z,11.720000
2022-09-23T21:10:30.248Z,11.700000
2022-09-23T21:15:30.691Z,11.640000
2022-09-23T21:20:22.249Z,11.550000
2022-09-23T21:25:28.289Z,11.427273
2022-09-23T21:30:29.073Z,11.336364
2022-09-23T21:35:19.521Z,11.227273
2022-09-23T21:40:22.923Z,11.122222
2022-09-23T21:45:25.729Z,11.050000
2022-09-23T21:50:30.693Z,10.911111
2022-09-23T21:55:20.070Z,10.762500
2022-09-23T22:00:23.078Z,10.640000
2022-09-23T22:05:26.118Z,10.490000
2022-09-23T22:10:30.799Z,10.400000
2022-09-23T22:15:20.319Z,10.411111
2022-09-23T22:20:23.724Z,10.550000
2022-09-23T22:25:26.895Z,10.716667
2022-09-23T22:30:30.762Z,10.855556
2022-09-23T22:35:21.029Z,10.977778
2022-09-23T22:40:19.266Z,11.000000
2022-09-23T22:45:19.949Z,10.966667
2022-09-23T22:50:19.408Z,10.963636
2022-09-23T22:55:21.381Z,10.981818
2022-09-23T23:00:19.239Z,10.900000
2022-09-23T23:05:19.314Z,10.758333
2022-09-23T23:10:19.351Z,10.481818
2022-09-23T23:15:22.208Z,10.244444
2022-09-23T23:20:19.176Z,10.100000
2022-09-23T23:25:19.224Z,10.025000
2022-09-23T23:30:19.557Z,10.000000
2022-09-23T23:35:22.402Z,9.966667
2022-09-23T23:40:22.196Z,9.860000
2022-09-23T23:45:31.699Z,9.722222
2022-09-23T23:50:19.670Z,9.620000
2022-09-23T23:55:19.637Z,9.650000
